Time;durP1;ratioP1;P1;durP2;ratioP2;P2;SDS_P1;SDS_P2;PMS_P1;PMS_P2;Temp;Humidity;BMP_temperature;BMP_pressure;BME280_temperature;BME280_humidity;BME280_pressure;Samples;Min_cycle;Max_cycle;Signal;HPM_P1;HPM_P2
2022/05/02 00:00:51;;;;;;;11.40;9.20;;;14.10;72.90;;;;;;4927718;29;20894;-81
2022/05/02 00:03:18;;;;;;;10.70;9.70;;;14.30;72.20;;;;;;4924755;29;20483;-83
2022/05/02 00:05:46;;;;;;;8.97;8.10;;;14.30;71.90;;;;;;4929083;29;20451;-84
2022/05/02 00:08:13;;;;;;;9.70;8.80;;;14.40;71.70;;;;;;4919012;29;20454;-82
2022/05/02 00:10:40;;;;;;;10.13;9.20;;;14.30;71.90;;;;;;4931321;29;20458;-81
2022/05/02 00:13:09;;;;;;;9.20;8.40;;;14.30;73.00;;;;;;4916827;29;20489;-82
2022/05/02 00:15:37;;;;;;;9.20;8.30;;;14.10;73.20;;;;;;4914644;29;20668;-81
2022/05/02 00:18:05;;;;;;;9.80;8.90;;;14.00;73.80;;;;;;4926638;29;20479;-83
2022/05/02 00:20:38;;;;;;;9.70;8.80;;;14.00;73.60;;;;;;4921806;29;20472;-83
2022/05/02 00:23:07;;;;;;;9.73;8.80;;;14.10;72.60;;;;;;4924131;29;21025;-82
2022/05/02 00:25:34;;;;;;;9.70;8.80;;;14.30;72.00;;;;;;4917303;29;20464;-82
2022/05/02 00:28:02;;;;;;;9.53;8.63;;;14.20;71.70;;;;;;4936307;29;20462;-83
2022/05/02 00:30:30;;;;;;;10.17;8.67;;;14.10;72.00;;;;;;4921774;29;20482;-81
2022/05/02 00:32:57;;;;;;;12.20;8.53;;;14.00;72.50;;;;;;4922562;29;20495;-84
2022/05/02 00:35:25;;;;;;;9.00;8.10;;;14.00;72.70;;;;;;4922880;29;20482;-85
2022/05/02 00:37:51;;;;;;;8.67;7.40;;;14.10;72.60;;;;;;4922911;29;20475;-84
2022/05/02 00:40:18;;;;;;;9.83;8.83;;;14.00;73.50;;;;;;4923372;29;20456;-83
2022/05/02 00:42:46;;;;;;;9.20;8.30;;;13.90;73.20;;;;;;4924331;29;20491;-83
2022/05/02 00:45:17;;;;;;;9.07;8.17;;;13.80;73.50;;;;;;4921405;29;20463;-82
2022/05/02 00:47:55;;;;;;;10.00;8.50;;;13.90;73.90;;;;;;4916808;29;20459;-81
2022/05/02 00:50:34;;;;;;;8.10;7.30;;;13.90;74.10;;;;;;4919471;29;20639;-84
2022/05/02 00:53:06;;;;;;;8.10;7.40;;;14.00;73.90;;;;;;4929014;29;20478;-84
2022/05/02 00:55:33;;;;;;;8.57;7.70;;;14.00;73.50;;;;;;4924681;29;20479;-84
2022/05/02 00:58:01;;;;;;;8.70;7.70;;;14.00;73.50;;;;;;4930793;29;20461;-82
2022/05/02 01:00:30;;;;;;;10.73;8.00;;;13.90;73.40;;;;;;4924190;29;20506;-82
2022/05/02 01:02:56;;;;;;;8.63;7.80;;;14.10;73.00;;;;;;4920324;29;20495;-83
2022/05/02 01:05:24;;;;;;;8.33;7.53;;;14.00;72.80;;;;;;4919400;29;20532;-83
2022/05/02 01:07:50;;;;;;;10.10;7.60;;;13.90;72.90;;;;;;4923497;29;21005;-83
2022/05/02 01:10:18;;;;;;;9.40;8.40;;;13.90;73.30;;;;;;4946124;28;20458;-82
2022/05/02 01:12:46;;;;;;;8.80;8.00;;;14.20;72.80;;;;;;4938330;29;20480;-82
2022/05/02 01:15:15;;;;;;;9.00;8.10;;;14.30;72.00;;;;;;4937429;29;20506;-85
2022/05/02 01:17:43;;;;;;;8.50;7.60;;;14.20;71.90;;;;;;4931693;29;20455;-83
2022/05/02 01:20:14;;;;;;;8.17;7.37;;;14.00;72.40;;;;;;4941452;29;20442;-82
2022/05/02 01:22:42;;;;;;;9.17;8.27;;;14.00;72.80;;;;;;4934275;29;20593;-87
2022/05/02 01:25:10;;;;;;;10.40;7.80;;;14.00;73.10;;;;;;4932909;29;20462;-82
2022/05/02 01:27:37;;;;;;;9.60;8.50;;;13.90;73.40;;;;;;4944496;29;20466;-83
2022/05/02 01:30:04;;;;;;;8.30;7.60;;;13.80;73.80;;;;;;4923244;29;20466;-82
2022/05/02 01:32:31;;;;;;;8.20;7.40;;;13.80;74.30;;;;;;4937725;29;20477;-86
2022/05/02 01:34:57;;;;;;;7.70;7.00;;;13.80;74.30;;;;;;4938667;29;20454;-85
2022/05/02 01:37:24;;;;;;;8.20;7.40;;;13.80;74.50;;;;;;4925352;29;20474;-84
2022/05/02 01:39:51;;;;;;;10.23;8.33;;;13.90;74.60;;;;;;4925038;29;20889;-83
2022/05/02 01:42:18;;;;;;;8.53;7.73;;;14.10;74.20;;;;;;4940363;29;20502;-82
2022/05/02 01:44:44;;;;;;;8.30;7.50;;;14.10;73.70;;;;;;4928983;29;20457;-82
2022/05/02 01:47:11;;;;;;;8.90;8.00;;;14.00;73.60;;;;;;4915924;29;20488;-78
2022/05/02 01:49:39;;;;;;;10.20;9.20;;;14.10;74.30;;;;;;4939301;29;20465;-82
2022/05/02 01:52:06;;;;;;;9.73;8.70;;;14.10;74.60;;;;;;4929111;29;20486;-82
2022/05/02 01:54:33;;;;;;;10.43;8.37;;;14.10;75.20;;;;;;4920591;29;20879;-82
2022/05/02 01:57:00;;;;;;;8.90;8.10;;;13.90;74.90;;;;;;4916602;29;20494;-83
2022/05/02 01:59:27;;;;;;;8.43;7.40;;;13.80;75.40;;;;;;4927775;29;20477;-84
2022/05/02 02:01:53;;;;;;;9.30;8.40;;;13.70;75.90;;;;;;4919960;29;20565;-85
2022/05/02 02:07:06;;;;;;;11.60;9.13;;;13.70;77.00;;;;;;4924844;29;20581;-82
2022/05/02 02:09:34;;;;;;;9.90;9.00;;;13.90;76.30;;;;;;4918472;29;20474;-82
2022/05/02 02:12:01;;;;;;;9.03;8.23;;;14.00;75.70;;;;;;4923560;29;20482;-83
2022/05/02 02:14:27;;;;;;;10.97;8.17;;;13.90;75.70;;;;;;4917177;29;20515;-83
2022/05/02 02:16:54;;;;;;;9.80;8.37;;;13.70;76.30;;;;;;4941315;29;20844;-81
2022/05/02 02:19:21;;;;;;;8.00;7.20;;;13.60;77.00;;;;;;4922278;29;20549;-82
2022/05/02 02:21:48;;;;;;;8.67;7.77;;;13.60;77.60;;;;;;4922438;29;20493;-83
2022/05/02 02:24:15;;;;;;;8.90;8.20;;;13.50;77.70;;;;;;4918188;29;20465;-82
2022/05/02 02:26:41;;;;;;;8.40;7.57;;;13.60;77.60;;;;;;4921487;29;20754;-79
2022/05/02 02:29:08;;;;;;;8.80;8.00;;;13.60;77.70;;;;;;4919959;29;21070;-82
2022/05/02 02:31:36;;;;;;;9.10;8.20;;;13.50;77.80;;;;;;4926262;29;20485;-79
2022/05/02 02:34:03;;;;;;;9.20;8.30;;;13.70;77.90;;;;;;4921444;29;20491;-81
2022/05/02 02:36:29;;;;;;;11.03;9.90;;;13.60;77.60;;;;;;4922971;29;20494;-83
2022/05/02 02:38:56;;;;;;;11.63;9.47;;;13.50;77.70;;;;;;4941488;29;20856;-81
2022/05/02 02:41:23;;;;;;;9.93;8.67;;;13.50;77.80;;;;;;4921508;29;20467;-82
2022/05/02 02:43:49;;;;;;;10.00;9.20;;;13.50;78.00;;;;;;4921551;29;20470;-82
2022/05/02 02:46:16;;;;;;;12.83;9.27;;;13.50;78.20;;;;;;4917478;29;20471;-83
2022/05/02 02:48:43;;;;;;;9.50;8.50;;;13.50;78.60;;;;;;4919703;29;20879;-84
2022/05/02 02:51:10;;;;;;;10.77;9.70;;;13.50;78.90;;;;;;4923340;29;20522;-81
2022/05/02 02:53:36;;;;;;;10.67;9.57;;;13.50;79.20;;;;;;4916596;29;20465;-81
2022/05/02 02:56:03;;;;;;;10.40;9.40;;;13.40;79.00;;;;;;4918376;29;20487;-82
2022/05/02 02:58:30;;;;;;;10.60;9.53;;;13.40;79.30;;;;;;4920021;29;20495;-83
2022/05/02 03:00:57;;;;;;;12.63;9.70;;;13.40;79.50;;;;;;4920012;29;20554;-81
2022/05/02 03:03:24;;;;;;;11.50;10.50;;;13.40;79.40;;;;;;4914036;29;20466;-85
2022/05/02 03:06:03;;;;;;;9.80;8.90;;;13.40;79.40;;;;;;4924431;29;20462;-82
2022/05/02 03:08:34;;;;;;;11.93;9.63;;;13.40;79.50;;;;;;4927271;29;20459;-79
2022/05/02 03:11:02;;;;;;;10.57;9.47;;;13.40;79.90;;;;;;4919837;29;20589;-82
2022/05/02 03:13:29;;;;;;;12.70;10.40;;;13.80;79.20;;;;;;4926236;29;20464;-83
2022/05/02 03:15:56;;;;;;;10.33;9.30;;;13.70;78.40;;;;;;4919097;29;21022;-83
2022/05/02 03:18:23;;;;;;;10.60;9.50;;;13.50;78.90;;;;;;4917228;29;20470;-83
2022/05/02 03:20:50;;;;;;;10.93;9.43;;;13.50;79.30;;;;;;4922628;29;20832;-81
2022/05/02 03:23:20;;;;;;;10.03;9.13;;;13.40;79.40;;;;;;4915165;29;20511;-83
2022/05/02 03:25:47;;;;;;;11.77;10.57;;;13.40;79.80;;;;;;4921683;29;20459;-83
2022/05/02 03:28:14;;;;;;;10.60;9.60;;;13.60;80.10;;;;;;4927870;29;20481;-82
2022/05/02 03:30:42;;;;;;;10.23;9.23;;;13.50;78.90;;;;;;4928453;29;20461;-81
2022/05/02 03:33:09;;;;;;;10.90;9.70;;;13.50;79.30;;;;;;4918142;29;20488;-81
2022/05/02 03:35:36;;;;;;;11.20;9.30;;;13.40;79.60;;;;;;4921343;29;20573;-83
2022/05/02 03:38:02;;;;;;;12.73;10.00;;;13.30;79.80;;;;;;4914775;29;20965;-80
2022/05/02 03:40:29;;;;;;;10.83;9.37;;;13.30;80.00;;;;;;4916304;29;20463;-81
2022/05/02 03:42:56;;;;;;;12.23;10.07;;;13.30;80.50;;;;;;4917136;29;20489;-84
2022/05/02 03:45:23;;;;;;;11.93;10.03;;;13.50;80.30;;;;;;4916642;29;20471;-82
2022/05/02 03:47:50;;;;;;;10.53;9.53;;;13.40;80.20;;;;;;4916702;29;20494;-83
2022/05/02 03:50:16;;;;;;;10.50;9.37;;;13.30;80.80;;;;;;4916004;29;20473;-83
2022/05/02 03:52:43;;;;;;;12.23;10.43;;;13.20;81.60;;;;;;4920494;29;20599;-85
2022/05/02 03:55:10;;;;;;;11.77;9.30;;;13.10;82.10;;;;;;4921317;29;20463;-83
2022/05/02 03:57:37;;;;;;;10.80;9.63;;;13.00;82.60;;;;;;4917808;29;20515;-84
2022/05/02 04:00:05;;;;;;;10.50;9.50;;;13.10;83.00;;;;;;4944222;29;20459;-85
2022/05/02 04:02:31;;;;;;;10.00;9.00;;;13.10;82.90;;;;;;4934939;28;20474;-82
2022/05/02 04:04:59;;;;;;;11.70;10.50;;;13.20;83.10;;;;;;4933777;29;20455;-85
2022/05/02 04:07:25;;;;;;;13.40;9.73;;;13.20;82.90;;;;;;4935380;29;20455;-86
2022/05/02 04:09:53;;;;;;;11.67;9.83;;;13.30;83.10;;;;;;4931981;29;20455;-83
2022/05/02 04:12:20;;;;;;;12.07;10.27;;;13.30;83.10;;;;;;4927341;29;20479;-84
2022/05/02 04:14:47;;;;;;;12.80;10.60;;;13.30;83.50;;;;;;4922314;29;20527;-81
2022/05/02 04:17:14;;;;;;;11.77;10.57;;;13.50;83.20;;;;;;4929470;29;20489;-83
2022/05/02 04:19:41;;;;;;;10.63;9.67;;;13.40;83.20;;;;;;4930923;29;20455;-87
2022/05/02 04:22:08;;;;;;;11.43;10.23;;;13.40;83.60;;;;;;4928638;29;20467;-84
2022/05/02 04:24:35;;;;;;;10.90;9.47;;;13.40;83.60;;;;;;4930008;29;20451;-82
2022/05/02 04:27:02;;;;;;;10.83;9.73;;;13.40;83.60;;;;;;4921461;29;20483;-83
2022/05/02 04:29:29;;;;;;;12.60;11.33;;;13.50;83.80;;;;;;4921376;29;20977;-83
2022/05/02 04:31:56;;;;;;;10.90;9.47;;;13.60;83.40;;;;;;4926884;29;20483;-84
2022/05/02 04:34:23;;;;;;;12.20;11.00;;;13.50;83.20;;;;;;4927344;29;20530;-84
2022/05/02 04:36:50;;;;;;;13.20;9.80;;;13.50;83.40;;;;;;4934126;29;20493;-85
2022/05/02 04:39:17;;;;;;;11.10;10.00;;;13.40;83.80;;;;;;4924638;29;20448;-85
2022/05/02 04:41:44;;;;;;;14.50;10.57;;;13.50;83.80;;;;;;4935388;29;20471;-83
2022/05/02 04:44:11;;;;;;;11.30;10.10;;;13.40;83.50;;;;;;4927049;29;20475;-83
2022/05/02 04:46:38;;;;;;;11.37;10.27;;;13.40;83.60;;;;;;4928922;29;20512;-84
2022/05/02 04:49:06;;;;;;;13.23;10.43;;;13.40;83.70;;;;;;4932488;29;20678;-87
2022/05/02 04:51:33;;;;;;;11.03;9.90;;;13.30;84.00;;;;;;4925277;29;20472;-85
2022/05/02 04:54:00;;;;;;;11.87;10.67;;;13.30;84.10;;;;;;4932477;28;20450;-84
2022/05/02 04:56:27;;;;;;;14.50;11.73;;;13.20;84.00;;;;;;4937588;29;20509;-85
2022/05/02 04:58:53;;;;;;;15.70;10.70;;;13.50;83.80;;;;;;4931466;29;20446;-86
2022/05/02 05:01:20;;;;;;;13.10;11.83;;;13.50;83.10;;;;;;4934578;28;20485;-79
2022/05/02 05:03:48;;;;;;;12.77;11.53;;;13.40;83.20;;;;;;4940945;29;20463;-82
2022/05/02 05:06:17;;;;;;;11.43;10.33;;;13.30;83.60;;;;;;4932219;29;20497;-79
2022/05/02 05:08:44;;;;;;;11.07;9.93;;;13.20;84.20;;;;;;4932714;29;20495;-82
2022/05/02 05:11:20;;;;;;;12.80;10.03;;;13.20;84.80;;;;;;4928731;29;20475;-83
2022/05/02 05:17:19;;;;;;;12.23;10.90;;;13.20;85.30;;;;;;4926817;29;20816;-83
2022/05/02 05:20:14;;;;;;;11.80;10.70;;;13.00;85.30;;;;;;4931765;29;20458;-85
2022/05/02 05:22:53;;;;;;;13.33;11.57;;;13.00;86.00;;;;;;4929793;29;20826;-84
2022/05/02 05:25:39;;;;;;;12.77;11.50;;;13.10;85.80;;;;;;4931291;29;20549;-85
2022/05/02 05:28:21;;;;;;;12.30;11.07;;;13.20;85.90;;;;;;4927918;29;20470;-83
2022/05/02 05:30:52;;;;;;;15.63;11.63;;;13.70;84.60;;;;;;4923672;29;20451;-84
2022/05/02 05:33:34;;;;;;;15.70;12.60;;;14.00;83.10;;;;;;4924698;29;20466;-84
2022/05/02 05:36:33;;;;;;;15.50;12.03;;;13.90;82.30;;;;;;4913261;29;20452;-84
2022/05/02 05:39:05;;;;;;;16.90;12.50;;;13.80;82.60;;;;;;4929386;29;20458;-83
2022/05/02 05:41:55;;;;;;;12.57;11.27;;;13.80;82.90;;;;;;4923625;29;20474;-82
2022/05/02 05:44:40;;;;;;;15.57;12.67;;;13.60;82.80;;;;;;4921158;29;20948;-81
2022/05/02 05:47:29;;;;;;;11.50;10.30;;;13.50;84.50;;;;;;4921997;29;20462;-83
2022/05/02 05:50:18;;;;;;;13.87;10.70;;;13.30;85.30;;;;;;4922281;29;20489;-84
2022/05/02 05:53:16;;;;;;;12.33;10.70;;;13.60;86.10;;;;;;4927910;29;20493;-83
2022/05/02 05:56:07;;;;;;;13.27;11.10;;;13.60;86.50;;;;;;4927302;29;20463;-81
2022/05/02 05:58:48;;;;;;;11.30;10.17;;;13.60;86.60;;;;;;4938580;29;20451;-82
2022/05/02 06:01:38;;;;;;;13.17;10.93;;;13.70;86.00;;;;;;4927372;29;20482;-84
2022/05/02 06:04:10;;;;;;;12.17;9.80;;;13.70;85.00;;;;;;4932500;29;20511;-83
2022/05/02 06:06:37;;;;;;;13.80;11.33;;;13.60;84.50;;;;;;4934544;29;20468;-83
2022/05/02 06:09:06;;;;;;;15.03;10.90;;;13.60;84.70;;;;;;4941078;29;20448;-83
2022/05/02 06:11:34;;;;;;;13.23;11.93;;;13.90;84.20;;;;;;4946371;29;20462;-84
2022/05/02 06:14:02;;;;;;;12.90;11.17;;;14.10;83.00;;;;;;4931591;29;20440;-86
2022/05/02 06:19:26;;;;;;;11.67;10.47;;;14.00;82.50;;;;;;4929657;29;20466;-86
2022/05/02 06:21:54;;;;;;;12.23;10.93;;;14.10;82.30;;;;;;4919112;29;20483;-84
2022/05/02 06:24:25;;;;;;;13.77;12.30;;;14.50;80.70;;;;;;4928641;29;20522;-84
2022/05/02 06:26:54;;;;;;;13.20;12.00;;;14.80;79.90;;;;;;4928765;29;20457;-84
2022/05/02 06:29:22;;;;;;;12.27;11.03;;;14.90;79.20;;;;;;4931351;29;20451;-83
2022/05/02 06:31:53;;;;;;;12.87;11.00;;;14.70;79.30;;;;;;4936121;29;20486;-82
2022/05/02 06:34:25;;;;;;;18.07;11.87;;;14.30;78.80;;;;;;4940144;29;20463;-84
2022/05/02 06:37:10;;;;;;;12.83;11.43;;;14.20;79.70;;;;;;4935870;29;20459;-83
2022/05/02 06:40:01;;;;;;;13.00;11.13;;;14.20;80.50;;;;;;4939421;29;20443;-86
2022/05/02 06:42:46;;;;;;;11.93;10.53;;;14.20;80.70;;;;;;4947782;29;20470;-82
2022/05/02 06:45:40;;;;;;;11.40;10.30;;;14.30;80.80;;;;;;4945575;29;20451;-82
2022/05/02 06:48:07;;;;;;;16.77;12.40;;;14.40;81.10;;;;;;4936993;29;20538;-82
2022/05/02 06:50:36;;;;;;;12.50;11.30;;;14.60;81.30;;;;;;4930792;29;20467;-82
2022/05/02 06:53:11;;;;;;;12.73;10.90;;;14.60;79.60;;;;;;4925062;29;20590;-82
2022/05/02 06:56:16;;;;;;;14.10;12.60;;;14.60;79.10;;;;;;4926013;29;20461;-84
2022/05/02 06:58:58;;;;;;;13.77;11.17;;;14.60;80.60;;;;;;4932212;29;20485;-84
2022/05/02 07:01:48;;;;;;;14.63;11.63;;;14.80;79.90;;;;;;4936392;29;20476;-83
2022/05/02 07:04:49;;;;;;;14.43;12.97;;;14.90;78.60;;;;;;4937169;29;20455;-82
2022/05/02 07:07:22;;;;;;;16.43;12.77;;;15.40;78.90;;;;;;4922649;29;20522;-84
2022/05/02 07:10:12;;;;;;;16.33;13.17;;;15.50;79.40;;;;;;4930172;29;20833;-80
2022/05/02 07:12:49;;;;;;;14.70;13.07;;;15.30;79.90;;;;;;4929182;29;20475;-84
2022/05/02 07:15:39;;;;;;;15.47;13.67;;;15.30;78.20;;;;;;4926318;29;21162;-83
2022/05/02 07:18:13;;;;;;;13.93;12.53;;;15.80;78.10;;;;;;4917357;29;20498;-82
2022/05/02 07:20:53;;;;;;;14.70;13.30;;;15.80;76.90;;;;;;4938513;29;20478;-81
2022/05/02 07:23:51;;;;;;;14.90;13.27;;;15.90;76.30;;;;;;4931533;29;20451;-82
2022/05/02 07:26:20;;;;;;;14.90;13.60;;;16.20;75.20;;;;;;4929332;29;20448;-82
2022/05/02 07:28:48;;;;;;;17.17;15.60;;;16.50;74.90;;;;;;4926158;29;20473;-82
2022/05/02 07:31:20;;;;;;;14.90;13.30;;;17.60;73.50;;;;;;4923620;29;20558;-82
2022/05/02 07:33:53;;;;;;;13.83;12.43;;;18.80;67.30;;;;;;4929605;29;20473;-83
2022/05/02 07:36:23;;;;;;;12.27;11.07;;;19.40;64.50;;;;;;4938120;29;20431;-83
2022/05/02 07:38:59;;;;;;;16.97;15.47;;;20.90;62.00;;;;;;4936987;29;20482;-83
2022/05/02 07:41:27;;;;;;;16.83;15.10;;;23.10;56.50;;;;;;4933388;29;20477;-83
2022/05/02 07:44:01;;;;;;;14.43;13.07;;;23.90;54.10;;;;;;4929852;29;20465;-82
2022/05/02 07:46:32;;;;;;;16.27;14.53;;;25.10;51.70;;;;;;4933345;29;20473;-79
2022/05/02 07:49:02;;;;;;;15.50;13.90;;;25.70;49.20;;;;;;4929737;29;20819;-82
2022/05/02 07:51:29;;;;;;;13.30;12.10;;;25.80;48.70;;;;;;4933056;29;20530;-84
2022/05/02 07:54:01;;;;;;;12.97;11.63;;;25.70;47.50;;;;;;4934733;29;20446;-83
2022/05/02 07:56:31;;;;;;;15.13;13.87;;;25.70;47.70;;;;;;4934784;29;20459;-84
2022/05/02 07:58:59;;;;;;;13.97;12.83;;;26.20;46.00;;;;;;4930648;29;20519;-82
2022/05/02 08:01:26;;;;;;;14.90;13.53;;;27.40;44.70;;;;;;4926551;29;20567;-84
2022/05/02 08:03:53;;;;;;;14.43;13.00;;;27.80;43.60;;;;;;4918256;29;20969;-83
2022/05/02 08:06:38;;;;;;;14.63;13.33;;;28.10;42.90;;;;;;4928325;29;20466;-87
2022/05/02 08:09:47;;;;;;;13.43;11.57;;;28.40;42.00;;;;;;4932294;29;20510;-86
2022/05/02 08:12:43;;;;;;;12.30;11.17;;;27.30;41.70;;;;;;4937385;29;20469;-84
2022/05/02 08:15:41;;;;;;;12.03;11.03;;;27.00;42.00;;;;;;4926141;29;20542;-82
2022/05/02 08:18:32;;;;;;;12.60;11.47;;;27.50;42.20;;;;;;4934600;29;20469;-83
2022/05/02 08:21:07;;;;;;;12.20;11.20;;;27.20;42.10;;;;;;4944869;29;20442;-85
2022/05/02 08:27:16;;;;;;;12.37;11.27;;;27.30;42.60;;;;;;4916683;29;20463;-83
2022/05/02 08:29:52;;;;;;;10.67;9.40;;;26.90;41.80;;;;;;4934382;29;20435;-84
2022/05/02 08:32:28;;;;;;;10.70;9.83;;;26.80;43.00;;;;;;4939062;29;20474;-83
2022/05/02 08:35:13;;;;;;;11.40;10.40;;;27.60;41.10;;;;;;4918920;29;20446;-86
2022/05/02 08:38:02;;;;;;;9.97;9.17;;;27.60;41.00;;;;;;4917373;29;20482;-85
2022/05/02 08:41:04;;;;;;;9.80;9.00;;;28.10;40.10;;;;;;4928677;29;20432;-85
2022/05/02 08:44:02;;;;;;;10.90;9.90;;;28.00;39.50;;;;;;4927518;29;20831;-83
2022/05/02 08:46:47;;;;;;;10.10;9.30;;;27.70;39.70;;;;;;4943340;28;20537;-86
2022/05/02 08:49:38;;;;;;;9.93;9.10;;;27.70;39.40;;;;;;4918262;29;20451;-84
2022/05/02 08:52:32;;;;;;;11.07;9.60;;;28.00;39.30;;;;;;4927420;29;20546;-83
2022/05/02 08:55:06;;;;;;;10.97;10.07;;;28.00;39.20;;;;;;4922719;29;20494;-84
2022/05/02 08:57:53;;;;;;;12.80;11.60;;;29.30;38.30;;;;;;4928434;29;20905;-83
2022/05/02 09:00:39;;;;;;;11.50;10.50;;;30.40;36.20;;;;;;4920795;29;20463;-85
2022/05/02 09:03:33;;;;;;;10.87;9.77;;;29.50;37.50;;;;;;4934631;29;20471;-84
2022/05/02 09:06:40;;;;;;;12.27;11.17;;;28.80;38.20;;;;;;4930807;29;21635;-82
2022/05/02 09:09:16;;;;;;;11.70;10.70;;;28.00;39.80;;;;;;4949835;28;20450;-85
2022/05/02 09:12:08;;;;;;;12.60;11.50;;;28.30;39.40;;;;;;4938550;29;20487;-86
2022/05/02 09:15:02;;;;;;;14.47;12.00;;;27.80;39.40;;;;;;4932670;28;20472;-82
2022/05/02 09:18:11;;;;;;;13.60;12.50;;;28.30;39.20;;;;;;4920682;29;20487;-85
2022/05/02 09:21:09;;;;;;;12.20;11.27;;;26.70;41.00;;;;;;4930689;29;20458;-85
2022/05/02 09:24:07;;;;;;;14.33;13.23;;;25.70;42.50;;;;;;4911167;29;20466;-86
2022/05/02 09:26:56;;;;;;;13.00;12.00;;;25.90;43.20;;;;;;4914777;29;20450;-86
2022/05/02 09:30:16;;;;;;;14.43;13.07;;;28.30;40.20;;;;;;4917178;29;20465;-85
2022/05/02 09:33:04;;;;;;;12.50;11.53;;;27.80;40.10;;;;;;4913292;29;20474;-87
2022/05/02 09:35:39;;;;;;;15.70;14.40;;;27.10;41.10;;;;;;4914196;29;20459;-86
2022/05/02 09:38:25;;;;;;;13.57;12.47;;;26.40;42.20;;;;;;4913727;29;20482;-84
2022/05/02 09:41:32;;;;;;;13.73;12.53;;;27.40;41.60;;;;;;4914733;29;20454;-82
2022/05/02 09:50:45;;;;;;;12.10;10.93;;;28.40;39.90;;;;;;4883446;29;20456;-85
2022/05/02 09:53:52;;;;;;;10.57;9.10;;;29.20;37.80;;;;;;4903517;29;20481;-84
2022/05/02 09:56:38;;;;;;;9.67;8.77;;;28.80;37.60;;;;;;4921374;29;20545;-85
2022/05/02 09:59:09;;;;;;;17.90;9.80;;;28.80;38.00;;;;;;4916976;29;20485;-84
2022/05/02 10:01:47;;;;;;;10.50;9.47;;;28.90;37.50;;;;;;4919604;29;20554;-86
2022/05/02 10:04:32;;;;;;;12.30;10.30;;;28.40;38.20;;;;;;4916878;29;20537;-85
2022/05/02 10:07:06;;;;;;;10.30;9.30;;;28.40;37.50;;;;;;4919184;29;20458;-83
2022/05/02 10:09:54;;;;;;;10.47;9.57;;;29.50;37.10;;;;;;4918250;29;20462;-87
2022/05/02 10:12:27;;;;;;;9.90;8.90;;;29.30;36.40;;;;;;4911120;29;20496;-84
2022/05/02 10:15:25;;;;;;;10.90;9.80;;;28.60;37.50;;;;;;4919630;29;20442;-86
2022/05/02 10:18:19;;;;;;;9.90;9.00;;;28.80;37.10;;;;;;4926317;29;20475;-86
2022/05/02 10:21:01;;;;;;;10.20;9.40;;;28.10;38.00;;;;;;4926387;29;21752;-84
2022/05/02 10:23:49;;;;;;;12.57;11.37;;;26.80;40.20;;;;;;4939333;29;20520;-83
2022/05/02 10:26:55;;;;;;;11.80;10.50;;;26.90;41.00;;;;;;4919810;29;20566;-84
2022/05/02 10:29:42;;;;;;;12.10;11.20;;;28.10;39.20;;;;;;4886957;29;20459;-85
2022/05/02 10:32:31;;;;;;;11.77;10.67;;;26.50;40.00;;;;;;4919172;29;20494;-84
2022/05/02 10:35:02;;;;;;;15.20;9.57;;;26.30;41.30;;;;;;4918538;29;20530;-83
2022/05/02 10:37:35;;;;;;;12.93;11.60;;;26.10;41.70;;;;;;4915760;29;20501;-82
2022/05/02 10:40:09;;;;;;;9.93;9.03;;;27.10;41.20;;;;;;4917437;29;20514;-83
2022/05/02 10:42:41;;;;;;;11.37;10.27;;;27.90;39.80;;;;;;4915885;29;20463;-82
2022/05/02 10:45:10;;;;;;;12.50;11.20;;;28.50;38.70;;;;;;4919233;29;20546;-87
2022/05/02 10:47:43;;;;;;;12.47;11.47;;;27.90;39.50;;;;;;4925901;29;20443;-86
2022/05/02 10:50:30;;;;;;;11.73;10.63;;;27.10;39.60;;;;;;4930105;29;20451;-86
2022/05/02 10:53:18;;;;;;;11.40;10.40;;;27.20;40.90;;;;;;4928321;28;20517;-85
2022/05/02 10:55:54;;;;;;;12.07;11.13;;;27.40;40.70;;;;;;4936597;28;20558;-86
2022/05/02 10:58:23;;;;;;;11.33;10.23;;;28.10;39.40;;;;;;4928491;29;20467;-86
2022/05/02 11:01:15;;;;;;;11.50;10.43;;;28.20;39.00;;;;;;4931248;28;20451;-88
2022/05/02 11:04:10;;;;;;;11.77;10.70;;;27.70;39.60;;;;;;4915361;29;20493;-84
2022/05/02 11:07:01;;;;;;;11.27;10.33;;;27.30;39.90;;;;;;4913246;29;20455;-81
2022/05/02 11:09:56;;;;;;;12.23;11.10;;;26.60;41.20;;;;;;4912716;29;20467;-85
2022/05/02 11:12:27;;;;;;;11.53;10.43;;;26.30;41.30;;;;;;4922983;29;20485;-87
2022/05/02 11:15:05;;;;;;;10.50;9.50;;;26.20;42.20;;;;;;4920825;29;22099;-85
2022/05/02 11:17:52;;;;;;;11.10;10.20;;;27.40;40.80;;;;;;4923837;29;20465;-83
2022/05/02 11:20:46;;;;;;;12.13;11.10;;;27.70;40.00;;;;;;4922528;29;20462;-83
2022/05/02 11:23:22;;;;;;;9.90;9.10;;;27.60;39.60;;;;;;4940319;29;20470;-84
2022/05/02 11:26:09;;;;;;;12.00;11.03;;;26.90;40.80;;;;;;4921532;29;20466;-87
2022/05/02 11:28:45;;;;;;;11.37;10.30;;;27.80;40.00;;;;;;4923725;29;20454;-86
2022/05/02 11:31:32;;;;;;;11.97;10.87;;;27.80;39.70;;;;;;4913033;29;20593;-85
2022/05/02 11:34:19;;;;;;;10.70;9.80;;;27.80;39.10;;;;;;4918440;29;20483;-86
2022/05/02 11:36:53;;;;;;;10.70;9.80;;;27.80;39.30;;;;;;4914292;29;20470;-86
2022/05/02 11:39:43;;;;;;;12.10;11.10;;;27.50;39.30;;;;;;4917770;29;20477;-85
2022/05/02 11:42:18;;;;;;;11.23;10.23;;;26.90;40.40;;;;;;4915933;29;20470;-84
2022/05/02 11:45:10;;;;;;;10.00;9.00;;;26.90;40.70;;;;;;4917066;29;20473;-84
2022/05/02 11:47:36;;;;;;;12.17;11.17;;;26.80;41.70;;;;;;4920253;29;20449;-85
2022/05/02 11:50:05;;;;;;;11.80;10.90;;;26.90;41.00;;;;;;4923123;29;20468;-81
2022/05/02 11:52:35;;;;;;;10.33;9.53;;;26.40;40.60;;;;;;4920690;29;20471;-84
2022/05/02 11:55:07;;;;;;;11.87;10.47;;;25.70;42.10;;;;;;4921660;29;20450;-85
2022/05/02 11:57:35;;;;;;;12.80;10.67;;;25.00;43.60;;;;;;4929229;29;20456;-85
2022/05/02 12:00:07;;;;;;;15.03;12.80;;;24.80;43.60;;;;;;4927344;29;20459;-88
2022/05/02 12:03:03;;;;;;;12.77;11.57;;;24.40;44.50;;;;;;4930449;29;20478;-86
2022/05/02 12:05:41;;;;;;;11.63;10.43;;;24.20;44.90;;;;;;4919197;29;20454;-86
2022/05/02 12:08:20;;;;;;;11.97;10.97;;;24.40;45.20;;;;;;4916775;29;20467;-84
2022/05/02 12:10:47;;;;;;;10.33;9.43;;;24.90;44.60;;;;;;4924521;29;20449;-87
2022/05/02 12:13:16;;;;;;;10.17;9.13;;;25.20;43.30;;;;;;4923513;29;20467;-89
2022/05/02 12:16:00;;;;;;;12.90;10.10;;;25.30;42.80;;;;;;4926438;29;20467;-83
2022/05/02 12:18:53;;;;;;;12.13;10.80;;;25.30;43.30;;;;;;4923581;29;20551;-86
2022/05/02 12:21:45;;;;;;;11.03;9.60;;;25.60;43.20;;;;;;4923025;29;20474;-84
2022/05/02 12:24:26;;;;;;;12.57;11.47;;;25.70;42.70;;;;;;4925405;29;20466;-83
2022/05/02 12:26:53;;;;;;;11.03;10.07;;;26.00;42.00;;;;;;4928243;29;20442;-85
2022/05/02 12:29:21;;;;;;;9.80;8.90;;;25.90;41.60;;;;;;4925198;29;20451;-84
2022/05/02 12:32:00;;;;;;;10.93;9.83;;;25.40;41.90;;;;;;4943192;28;21657;-87
2022/05/02 12:34:39;;;;;;;10.27;9.13;;;26.70;41.10;;;;;;4927666;29;20485;-87
2022/05/02 12:37:34;;;;;;;10.10;9.30;;;26.90;39.70;;;;;;4927369;29;20452;-86
2022/05/02 12:40:12;;;;;;;10.63;9.73;;;26.20;40.00;;;;;;4931884;29;20493;-87
2022/05/02 12:42:44;;;;;;;11.07;10.07;;;25.90;41.20;;;;;;4928049;28;20509;-87
2022/05/02 12:45:14;;;;;;;9.90;9.10;;;25.90;42.30;;;;;;4931578;28;20550;-87
2022/05/02 12:47:42;;;;;;;10.73;9.80;;;26.30;41.90;;;;;;4929537;28;20453;-88
2022/05/02 12:50:17;;;;;;;10.13;9.00;;;26.70;41.60;;;;;;4929235;29;20460;-87
2022/05/02 12:52:50;;;;;;;9.63;8.73;;;26.80;41.40;;;;;;4927577;29;20498;-87
2022/05/02 12:55:19;;;;;;;10.53;9.43;;;26.60;41.20;;;;;;4941204;28;20462;-88
2022/05/02 13:00:46;;;;;;;11.03;9.93;;;25.30;42.20;;;;;;4925225;29;20455;-84
2022/05/02 13:03:12;;;;;;;9.87;9.17;;;25.30;42.60;;;;;;4911622;29;20967;-84
2022/05/02 13:05:48;;;;;;;10.60;9.60;;;25.40;42.00;;;;;;4912715;29;20992;-84
2022/05/02 13:08:36;;;;;;;10.53;9.73;;;25.10;42.40;;;;;;4918261;29;20461;-86
2022/05/02 13:11:12;;;;;;;10.80;9.80;;;24.80;43.30;;;;;;4903640;29;20460;-85
2022/05/02 13:13:48;;;;;;;11.13;10.03;;;24.60;43.60;;;;;;4912716;29;20455;-84
2022/05/02 13:16:41;;;;;;;11.60;10.40;;;24.40;44.00;;;;;;4919577;29;20466;-85
2022/05/02 13:19:10;;;;;;;11.83;10.70;;;24.40;44.10;;;;;;4924648;29;20535;-86
2022/05/02 13:21:37;;;;;;;11.37;10.23;;;24.00;44.60;;;;;;4930578;29;20554;-90
2022/05/02 13:24:07;;;;;;;11.13;10.03;;;23.60;45.00;;;;;;4931603;29;20522;-85
2022/05/02 13:27:09;;;;;;;11.77;10.67;;;23.30;45.60;;;;;;4932447;29;20461;-85
2022/05/02 13:29:48;;;;;;;11.40;9.67;;;23.30;46.40;;;;;;4936495;29;20500;-86
2022/05/02 13:32:27;;;;;;;12.23;10.90;;;23.50;46.80;;;;;;4934321;29;20498;-85
2022/05/02 13:35:04;;;;;;;12.90;10.00;;;23.70;46.00;;;;;;4926367;29;20455;-85
2022/05/02 13:37:43;;;;;;;11.37;10.27;;;23.50;45.80;;;;;;4913096;29;20443;-84